Weather at Andros Central / Twin Lakes Airport [CLOSED]

Public forecast

Using degrees Celsius for public forecast. Weather courtesy of forecast.io.

Closest aviation weather report (METAR) to Andros Central / Twin Lakes Airport

Closest report is Lynden Pindling International Airport, 34.1 nm (63.1 km) ENE. Retrieved 2021/06/19 00:00 UTC (3 minutes ago):

MYNN 190000Z 12007KT 9999 FEW020 BKN100 BKN220 29/23 A3008

Closest aviation forecast (TAF) to Andros Central / Twin Lakes Airport

Closest forecast is Lynden Pindling International Airport, 34.1 nm (63.1 km) ENE. Retrieved 2021/06/18 18:41 UTC (5 hours ago):

TAF MYNN 181655Z 1818/1918 15010KT 9999 FEW020 BKN120 BKN220